»·PEaware :: SWA280 KLAS-KSNA

SWA280 :: KLAS-KSNA

FLIGHT INFORMATION

Flight Status: Arrived
Operator:
Southwest Airlines
More flights by this operator :: More flights under this callsign
Pilot: Ion I. (24133)
Aircraft: BOEING 737-800
(B738)
More flights by this aircraft type
Origin: KLAS McCarran Intl
United States
Destination: KSNA John Wayne-Orange Co
United States
More flights between these airports :: More routes between these airports
Route: BOACH8 WHIGG FEYLA DSNEE4
File this flight plan on PilotEdge
Remarks:
Altitude:
(Current/Filed)
28,000ft
Speed:
(Current/Filed)
460kts
Departed: 05-Jan-21 11:09 AM
Arrived: 05-Jan-21 11:49 AM
Distance/Time
Traveled:
196nm/0:40
Distance/Time
To Go:
Arrived

Flight Plot

Page will automatically refresh every two minutes.

Flight plan parsing failed; only flown route is shown


Map Options




Map Legend


Flown Route
Filed Route
Departure Airport
Arrival Airport
Navaid (VOR, NDB)
Fix

Horizontal Profiles

Position Reports

Time Latitude Longitude Heading Altitude Ground
Speed
05-Jan-21 10:41 36.082294 -115.150598 338 2189ft 0kts
05-Jan-21 10:42 36.082294 -115.150598 338 2189ft 0kts
05-Jan-21 10:43 36.082294 -115.150598 338 2189ft 0kts
05-Jan-21 10:44 36.082294 -115.150598 338 2189ft 0kts
05-Jan-21 10:45 36.082294 -115.150598 338 2189ft 0kts
05-Jan-21 10:46 36.082294 -115.150598 338 2189ft 0kts
05-Jan-21 10:47 36.082294 -115.150598 338 2189ft 0kts
05-Jan-21 10:48 36.082294 -115.150598 338 2189ft 0kts
05-Jan-21 10:50 36.082294 -115.150598 338 2189ft 0kts
05-Jan-21 10:51 36.082294 -115.150598 338 2189ft 0kts
05-Jan-21 10:52 36.082294 -115.150598 338 2189ft 0kts
05-Jan-21 10:53 36.082294 -115.150598 338 2189ft 0kts
05-Jan-21 10:54 36.082294 -115.150598 338 2189ft 0kts
05-Jan-21 10:55 36.082294 -115.150598 338 2189ft 0kts
05-Jan-21 10:56 36.082294 -115.150598 338 2189ft 0kts
05-Jan-21 10:57 36.082294 -115.150598 338 2189ft 0kts
05-Jan-21 10:58 36.082294 -115.150598 338 2189ft 0kts
05-Jan-21 10:59 36.081925 -115.150113 234 2189ft 2kts
05-Jan-21 11:00 36.081951 -115.150069 226 2189ft 0kts
05-Jan-21 11:01 36.081951 -115.150069 226 2189ft 0kts
05-Jan-21 11:02 36.081950 -115.150069 226 2189ft 0kts
05-Jan-21 11:03 36.081437 -115.149565 137 2189ft 9kts
05-Jan-21 11:03 36.079161 -115.148216 164 2189ft 18kts
05-Jan-21 11:04 36.078275 -115.141228 90 2189ft 27kts
05-Jan-21 11:06 36.078274 -115.131629 89 2189ft 23kts
05-Jan-21 11:06 36.078299 -115.123817 89 2189ft 25kts
05-Jan-21 11:07 36.076427 -115.122378 269 2189ft 19kts
05-Jan-21 11:08 36.076366 -115.159206 269 2369ft 175kts
05-Jan-21 11:09 36.075426 -115.222454 261 4470ft 206kts
05-Jan-21 11:10 36.030567 -115.275826 198 6114ft 271kts
05-Jan-21 11:11 35.955322 -115.304422 187 7096ft 289kts
05-Jan-21 11:12 35.874126 -115.313033 185 10228ft 298kts
05-Jan-21 11:13 35.788221 -115.306995 177 13118ft 320kts
05-Jan-21 11:14 35.695824 -115.299523 193 15867ft 339kts
05-Jan-21 11:15 35.623603 -115.366521 235 18622ft 333kts
05-Jan-21 11:16 35.559999 -115.453822 233 21139ft 352kts
05-Jan-21 11:17 35.492195 -115.544818 233 23425ft 369kts
05-Jan-21 11:18 35.421993 -115.639727 233 25631ft 380kts
05-Jan-21 11:19 35.349714 -115.736968 233 27612ft 391kts
05-Jan-21 11:20 35.274307 -115.837820 233 28287ft 419kts
05-Jan-21 11:21 35.191392 -115.946777 230 28288ft 449kts
05-Jan-21 11:22 35.104096 -116.055922 231 28289ft 447kts
05-Jan-21 11:23 35.017424 -116.165336 230 28291ft 448kts
05-Jan-21 11:24 34.930553 -116.273941 230 28303ft 448kts
05-Jan-21 11:25 34.845946 -116.380840 231 27883ft 431kts
05-Jan-21 11:26 34.763688 -116.485431 230 26689ft 420kts
05-Jan-21 11:27 34.689629 -116.578388 227 25431ft 407kts
05-Jan-21 11:28 34.601722 -116.664580 223 23264ft 397kts
05-Jan-21 11:29 34.515726 -116.748350 222 20597ft 398kts
05-Jan-21 11:30 34.439183 -116.834925 228 18480ft 362kts
05-Jan-21 11:31 34.369478 -116.915944 227 16675ft 362kts
05-Jan-21 11:32 34.302904 -116.992769 226 14975ft 355kts
05-Jan-21 11:33 34.225762 -117.063786 213 13629ft 341kts
05-Jan-21 11:34 34.144006 -117.118582 206 12863ft 338kts
05-Jan-21 11:35 34.058093 -117.163247 206 12346ft 338kts
05-Jan-21 11:36 33.988743 -117.208942 224 11901ft 313kts
05-Jan-21 11:37 33.932098 -117.286280 231 10536ft 294kts
05-Jan-21 11:38 33.885790 -117.351782 232 9642ft 276kts
05-Jan-21 11:39 33.839129 -117.417691 232 8619ft 252kts
05-Jan-21 11:40 33.822230 -117.492539 279 7508ft 239kts
05-Jan-21 11:41 33.830672 -117.570534 278 6219ft 226kts
05-Jan-21 11:42 33.832299 -117.643142 273 5151ft 219kts
05-Jan-21 11:43 33.832911 -117.716456 270 4058ft 212kts
05-Jan-21 11:44 33.815121 -117.781941 206 2975ft 225kts
05-Jan-21 11:45 33.764670 -117.811981 206 1986ft 179kts
05-Jan-21 11:46 33.728484 -117.835332 208 1099ft 152kts
05-Jan-21 11:47 33.694724 -117.856876 208 378ft 149kts
05-Jan-21 11:48 33.670230 -117.872189 189 64ft 15kts
05-Jan-21 11:49 33.670102 -117.869899 40 64ft 17kts
05-Jan-21 11:50 33.674245 -117.866385 28 64ft 21kts
05-Jan-21 11:51 33.676901 -117.864161 117 64ft 3kts
05-Jan-21 11:52 33.676795 -117.863919 117 64ft 0kts
05-Jan-21 11:53 33.676795 -117.863919 117 64ft 0kts

Navigation Log

Ident Type
Flight plan parsing failed, navigation log unavailable